createdAt,value
2017-06-09T00:00:00.152Z,59.86
2017-06-09T00:00:40.838Z,60.05
2017-06-09T00:01:21.420Z,59.58
2017-06-09T00:02:02.010Z,60.44
2017-06-09T00:02:42.600Z,60.15
2017-06-09T00:03:23.187Z,60.53
2017-06-09T00:04:03.775Z,60.53
2017-06-09T00:04:44.362Z,60.15
2017-06-09T00:05:24.954Z,60.63
2017-06-09T00:06:05.542Z,60.63
2017-06-09T00:06:46.132Z,60.72
2017-06-09T00:07:26.745Z,60.53
2017-06-09T00:08:07.322Z,60.25
2017-06-09T00:08:47.941Z,60.63
2017-06-09T00:09:28.546Z,60.63
2017-06-09T00:10:09.133Z,60.63
2017-06-09T00:10:49.734Z,60.53
2017-06-09T00:11:30.311Z,60.72
2017-06-09T00:12:10.962Z,60.63
2017-06-09T00:12:51.535Z,60.92
2017-06-09T00:13:32.188Z,60.82
2017-06-09T00:14:12.770Z,60.63
2017-06-09T00:14:53.385Z,60.63
2017-06-09T00:15:33.977Z,61.11
2017-06-09T00:16:14.566Z,61.3
2017-06-09T00:16:55.163Z,61.11
2017-06-09T00:17:35.740Z,61.4
2017-06-09T00:18:16.315Z,61.49
2017-06-09T00:18:56.939Z,61.49
2017-06-09T00:19:37.588Z,61.49
2017-06-09T00:20:18.179Z,61.3
2017-06-09T00:20:58.767Z,61.3
2017-06-09T00:21:39.351Z,61.3
2017-06-09T00:22:20.023Z,61.49
2017-06-09T00:23:00.576Z,61.3
2017-06-09T00:23:41.169Z,61.4
2017-06-09T00:24:21.753Z,61.3
2017-06-09T00:25:02.335Z,61.3
2017-06-09T00:25:42.917Z,61.3
2017-06-09T00:26:23.504Z,61.4
2017-06-09T00:27:04.093Z,61.4
2017-06-09T00:27:44.672Z,61.3
2017-06-09T00:28:25.253Z,61.3
2017-06-09T00:29:05.839Z,61.27
2017-06-09T00:29:46.448Z,61.11
2017-06-09T00:30:27.082Z,61.27
2017-06-09T00:31:07.666Z,61.75
2017-06-09T00:31:48.286Z,61.98
2017-06-09T00:32:28.899Z,61.78
2017-06-09T00:33:09.488Z,61.98
2017-06-09T00:33:50.080Z,62.13
2017-06-09T00:34:30.756Z,61.75
2017-06-09T00:35:11.266Z,61.88
2017-06-09T00:35:51.853Z,61.85
2017-06-09T00:36:32.468Z,61.49
2017-06-09T00:37:13.025Z,61.27
2017-06-09T00:37:53.619Z,61.78
2017-06-09T00:38:34.206Z,61.27
2017-06-09T00:39:14.774Z,61.08
2017-06-09T00:39:55.358Z,62.04
2017-06-09T00:40:35.954Z,61.46
2017-06-09T00:41:23.375Z,61.75
2017-06-09T00:42:03.969Z,61.85
2017-06-09T00:42:44.556Z,61.94
2017-06-09T00:43:25.160Z,61.94
2017-06-09T00:44:05.743Z,61.75
2017-06-09T00:44:46.317Z,61.94
2017-06-09T00:45:26.934Z,62.04
2017-06-09T00:46:07.526Z,62.23
2017-06-09T00:46:48.125Z,62.23
2017-06-09T00:47:28.782Z,62.13
2017-06-09T00:48:09.395Z,62.33
2017-06-09T00:48:50.003Z,62.42
2017-06-09T00:49:30.589Z,62.62
2017-06-09T00:50:11.175Z,62.13
2017-06-09T00:50:51.760Z,62.04
2017-06-09T00:51:32.353Z,62.13
2017-06-09T00:52:13.466Z,62.33
2017-06-09T00:52:54.052Z,62.33
2017-06-09T00:53:34.700Z,62.33
2017-06-09T00:54:15.286Z,62.13
2017-06-09T00:54:55.874Z,62.33
2017-06-09T00:55:36.458Z,62.52
2017-06-09T00:56:17.088Z,62.33
2017-06-09T00:56:57.681Z,62.33
2017-06-09T00:57:38.276Z,62.33
2017-06-09T00:58:18.860Z,62.52
2017-06-09T00:58:59.448Z,62.33
2017-06-09T00:59:40.027Z,62.33
2017-06-09T01:00:24.597Z,62.04
2017-06-09T01:01:06.002Z,62.13
2017-06-09T01:01:46.587Z,62.42
2017-06-09T01:02:27.163Z,62.81
2017-06-09T01:03:07.746Z,62.9
2017-06-09T01:03:48.362Z,62.33
2017-06-09T01:04:28.946Z,62.33
2017-06-09T01:05:09.531Z,62.13
2017-06-09T01:05:50.112Z,62.52
2017-06-09T01:06:30.690Z,62.33
2017-06-09T01:07:11.276Z,62.13
2017-06-09T01:07:51.874Z,62.33
2017-06-09T01:08:32.455Z,62.33
2017-06-09T01:09:13.051Z,62.62
2017-06-09T01:09:53.625Z,62.42
2017-06-09T01:10:34.213Z,62.62
2017-06-09T01:11:14.795Z,62.42
2017-06-09T01:11:55.384Z,62.62
2017-06-09T01:12:35.966Z,62.33
2017-06-09T01:13:16.564Z,62.23
2017-06-09T01:13:57.154Z,62.13
2017-06-09T01:14:37.750Z,61.94
2017-06-09T01:15:18.349Z,61.75
2017-06-09T01:15:58.953Z,62.23
2017-06-09T01:16:39.564Z,62.13
2017-06-09T01:17:20.152Z,62.59
2017-06-09T01:18:00.759Z,62.52
2017-06-09T01:18:41.343Z,62.13
2017-06-09T01:19:21.933Z,62.33
2017-06-09T01:20:02.509Z,62.2
2017-06-09T01:20:43.156Z,61.94
2017-06-09T01:21:23.785Z,61.85
2017-06-09T01:22:04.339Z,62.42
2017-06-09T01:22:44.933Z,62.42
2017-06-09T01:23:25.521Z,62.13
2017-06-09T01:24:06.109Z,62.2
2017-06-09T01:24:46.697Z,62.33
2017-06-09T01:25:27.287Z,62.42
2017-06-09T01:26:07.888Z,62.33
2017-06-09T01:26:48.464Z,62.23
2017-06-09T01:27:29.046Z,62.52
2017-06-09T01:28:09.629Z,62.13
2017-06-09T01:28:50.207Z,62.39
2017-06-09T01:29:30.813Z,62.62
2017-06-09T01:30:11.400Z,62.13
2017-06-09T01:30:51.988Z,62.39
2017-06-09T01:31:32.590Z,62.42
2017-06-09T01:32:13.196Z,62.59
2017-06-09T01:32:53.773Z,62.2
2017-06-09T01:33:34.351Z,62.52
2017-06-09T01:34:14.941Z,62.49
2017-06-09T01:34:55.536Z,62.49
2017-06-09T01:35:36.117Z,62.49
2017-06-09T01:36:16.703Z,62.1
2017-06-09T01:36:57.328Z,62.2
2017-06-09T01:37:37.914Z,62.2
2017-06-09T01:38:18.499Z,62.59
2017-06-09T01:38:59.091Z,62.3
2017-06-09T01:39:39.680Z,62.39
2017-06-09T01:40:20.263Z,62.3
2017-06-09T01:41:00.858Z,62.77
2017-06-09T01:41:41.437Z,62.87
2017-06-09T01:42:22.027Z,62.39
2017-06-09T01:43:02.629Z,62.49
2017-06-09T01:43:43.231Z,62.39
2017-06-09T01:44:23.848Z,62.59
2017-06-09T01:45:04.390Z,62.49
2017-06-09T01:45:44.989Z,62.68
2017-06-09T01:46:25.579Z,62.59
2017-06-09T01:47:06.172Z,62.68
2017-06-09T01:47:46.761Z,62.77
2017-06-09T01:48:27.347Z,63.06
2017-06-09T01:49:07.934Z,62.87
2017-06-09T01:49:48.541Z,62.96
2017-06-09T01:50:29.138Z,63.16
2017-06-09T01:51:09.717Z,62.87
2017-06-09T01:51:50.333Z,63.26
2017-06-09T01:52:30.954Z,63.35
2017-06-09T01:53:11.535Z,63.26
2017-06-09T01:53:52.119Z,63.35
2017-06-09T01:54:32.703Z,63.45
2017-06-09T01:55:13.331Z,63.26
2017-06-09T01:55:53.927Z,63.35
2017-06-09T01:56:34.527Z,63.45
2017-06-09T01:57:15.148Z,63.26
2017-06-09T01:57:55.736Z,63.35
2017-06-09T01:58:36.362Z,63.35
2017-06-09T01:59:16.955Z,63.06
2017-06-09T01:59:57.571Z,63.16
2017-06-09T02:00:38.151Z,63.16
2017-06-09T02:01:18.728Z,63.54
2017-06-09T02:01:59.335Z,63.26
2017-06-09T02:02:39.933Z,63.16
2017-06-09T02:03:20.528Z,63.06
2017-06-09T02:04:01.119Z,62.77
2017-06-09T02:04:41.726Z,63.45
2017-06-09T02:05:22.323Z,63.26
2017-06-09T02:06:02.926Z,63.35
2017-06-09T02:06:43.507Z,63.45
2017-06-09T02:07:24.113Z,63.35
2017-06-09T02:08:04.710Z,63.16
2017-06-09T02:08:45.312Z,63.16
2017-06-09T02:09:25.895Z,63.16
2017-06-09T02:10:06.491Z,62.96
2017-06-09T02:10:47.092Z,63.26
2017-06-09T02:11:27.690Z,63.26
2017-06-09T02:12:08.271Z,63.26
2017-06-09T02:12:48.850Z,63.45
2017-06-09T02:13:29.480Z,62.68
2017-06-09T02:14:10.085Z,63.26
2017-06-09T02:14:50.676Z,62.87
2017-06-09T02:15:31.278Z,63.06
2017-06-09T02:16:11.863Z,63.45
2017-06-09T02:16:52.470Z,63.06
2017-06-09T02:17:33.130Z,63.35
2017-06-09T02:18:13.761Z,63.54
2017-06-09T02:18:54.343Z,63.16
2017-06-09T02:19:34.935Z,63.26
2017-06-09T02:20:15.521Z,63.35
2017-06-09T02:20:56.102Z,63.26
2017-06-09T02:21:36.690Z,63.06
2017-06-09T02:22:17.374Z,62.96
2017-06-09T02:22:57.954Z,63.26
2017-06-09T02:23:38.544Z,63.45
2017-06-09T02:24:19.126Z,63.73
2017-06-09T02:24:59.730Z,63.54
2017-06-09T02:25:40.317Z,63.06
2017-06-09T02:26:20.919Z,63.32
2017-06-09T02:27:01.507Z,63.64
2017-06-09T02:27:42.106Z,63.51
2017-06-09T02:28:22.696Z,63.45
2017-06-09T02:29:03.277Z,63.32
2017-06-09T02:29:43.863Z,63.26
2017-06-09T02:30:24.442Z,63.54
2017-06-09T02:31:05.013Z,63.42
2017-06-09T02:31:45.701Z,63.03
2017-06-09T02:32:26.289Z,63.22
2017-06-09T02:33:06.868Z,63.13
2017-06-09T02:33:47.481Z,63.32
2017-06-09T02:34:28.076Z,63.42
2017-06-09T02:35:08.655Z,63.7
2017-06-09T02:35:49.242Z,63.32
2017-06-09T02:36:29.825Z,62.93
2017-06-09T02:37:10.409Z,63.13
2017-06-09T02:37:51.004Z,63.03
2017-06-09T02:38:31.616Z,63.8
2017-06-09T02:39:12.204Z,63.51
2017-06-09T02:39:52.788Z,63.7
2017-06-09T02:40:33.438Z,62.84
2017-06-09T02:41:14.004Z,63.42
2017-06-09T02:41:54.551Z,63.13
2017-06-09T02:42:35.137Z,63.03
2017-06-09T02:43:15.724Z,62.84
2017-06-09T02:43:56.397Z,63.22
2017-06-09T02:44:36.971Z,62.93
2017-06-09T02:45:17.555Z,62.93
2017-06-09T02:45:58.135Z,63.03
2017-06-09T02:46:38.758Z,63.22
2017-06-09T02:47:19.356Z,63.22
2017-06-09T02:47:59.979Z,63.51
2017-06-09T02:48:40.549Z,63.13
2017-06-09T02:49:21.134Z,63.42
2017-06-09T02:50:01.715Z,63.51
2017-06-09T02:50:42.310Z,62.65
2017-06-09T02:51:22.921Z,63.42
2017-06-09T02:52:03.499Z,63.6
2017-06-09T02:52:44.091Z,63.99
2017-06-09T02:53:24.661Z,63.89
2017-06-09T02:54:05.246Z,64.09
2017-06-09T02:54:45.849Z,63.6
2017-06-09T02:55:26.432Z,63.7
2017-06-09T02:56:07.018Z,63.32
2017-06-09T02:56:47.630Z,63.13
2017-06-09T02:57:28.223Z,63.99
2017-06-09T02:58:08.812Z,63.6
2017-06-09T02:58:49.406Z,63.8
2017-06-09T02:59:30.001Z,64.47
2017-06-09T03:00:10.600Z,64.18
2017-06-09T03:00:51.210Z,63.99
2017-06-09T03:01:31.797Z,64.37
2017-06-09T03:02:12.383Z,64.37
2017-06-09T03:02:53.016Z,64.47
2017-06-09T03:03:33.604Z,64.09
2017-06-09T03:04:14.222Z,63.99
2017-06-09T03:04:54.831Z,64.47
2017-06-09T03:05:35.465Z,64.37
2017-06-09T03:06:16.065Z,64.47
2017-06-09T03:06:56.646Z,64.28
2017-06-09T03:07:37.369Z,64.47
2017-06-09T03:08:17.976Z,64.09
2017-06-09T03:08:58.559Z,64.18
2017-06-09T03:09:39.140Z,64.18
2017-06-09T03:10:19.764Z,64.47
2017-06-09T03:11:00.351Z,63.99
2017-06-09T03:11:40.953Z,63.99
2017-06-09T03:12:21.550Z,64.09
2017-06-09T03:13:02.132Z,63.99
2017-06-09T03:13:42.728Z,64.66
2017-06-09T03:14:23.309Z,64.47
2017-06-09T03:15:03.920Z,64.47
2017-06-09T03:15:44.524Z,64.18
2017-06-09T03:16:25.144Z,64.28
2017-06-09T03:17:05.726Z,64.66
2017-06-09T03:17:46.357Z,64.56
2017-06-09T03:18:26.971Z,64.66
2017-06-09T03:19:07.567Z,64.28
2017-06-09T03:19:48.228Z,64.18
2017-06-09T03:20:28.851Z,64.28
2017-06-09T03:21:09.458Z,64.37
2017-06-09T03:21:50.042Z,64.28
2017-06-09T03:22:30.637Z,64.18
2017-06-09T03:23:11.227Z,64.47
2017-06-09T03:23:51.856Z,64.28
2017-06-09T03:24:32.450Z,64.56
2017-06-09T03:25:13.116Z,64.47
2017-06-09T03:25:53.714Z,64.76
2017-06-09T03:26:34.307Z,64.37
2017-06-09T03:27:14.919Z,64.95
2017-06-09T03:27:55.552Z,64.56
2017-06-09T03:28:36.164Z,64.28
2017-06-09T03:29:16.993Z,64.09
2017-06-09T03:29:57.593Z,64.56
2017-06-09T03:30:38.181Z,64.28
2017-06-09T03:31:18.768Z,64.47
2017-06-09T03:31:59.362Z,64.28
2017-06-09T03:32:40.182Z,64.56
2017-06-09T03:33:20.976Z,64.47
2017-06-09T03:34:01.582Z,64.37
2017-06-09T03:34:42.441Z,64.47
2017-06-09T03:35:23.062Z,64.37
2017-06-09T03:36:03.747Z,64.47
2017-06-09T03:36:44.276Z,64.37
2017-06-09T03:37:24.863Z,64.47
2017-06-09T03:38:05.450Z,64.37
2017-06-09T03:38:46.076Z,64.66
2017-06-09T03:39:26.714Z,65.05
2017-06-09T03:40:07.294Z,64.56
2017-06-09T03:40:47.901Z,64.56
2017-06-09T03:41:28.530Z,65.05
2017-06-09T03:42:09.088Z,64.76
2017-06-09T03:42:49.700Z,64.95
2017-06-09T03:43:30.327Z,65.14
2017-06-09T03:44:10.916Z,64.76
2017-06-09T03:44:51.494Z,64.47
2017-06-09T03:45:32.086Z,64.85
2017-06-09T03:46:12.701Z,64.76
2017-06-09T03:46:53.336Z,64.76
2017-06-09T03:47:33.918Z,64.28
2017-06-09T03:48:14.501Z,64.37
2017-06-09T03:48:55.124Z,64.47
2017-06-09T03:49:35.697Z,64.18
2017-06-09T03:50:16.292Z,64.37
2017-06-09T03:50:56.893Z,64.56
2017-06-09T03:51:37.470Z,64.76
2017-06-09T03:52:18.088Z,65.05
2017-06-09T03:52:58.737Z,64.76
2017-06-09T03:53:39.297Z,64.56
2017-06-09T03:54:19.887Z,64.47
2017-06-09T03:55:00.491Z,64.56
2017-06-09T03:55:41.078Z,64.95
2017-06-09T03:56:21.686Z,64.95
2017-06-09T03:57:02.273Z,64.66
2017-06-09T03:57:43.048Z,64.28
2017-06-09T03:58:23.632Z,64.47
2017-06-09T03:59:04.213Z,64.37
2017-06-09T03:59:44.851Z,64.28
2017-06-09T04:00:25.455Z,64.76
2017-06-09T04:01:06.028Z,64.56
2017-06-09T04:01:46.636Z,64.76
2017-06-09T04:02:27.247Z,64.37
2017-06-09T04:03:07.843Z,64.85
2017-06-09T04:03:48.438Z,64.76
2017-06-09T04:04:29.017Z,65.05
2017-06-09T04:05:09.597Z,64.47
2017-06-09T04:05:50.226Z,64.37
2017-06-09T04:06:30.803Z,64.47
2017-06-09T04:07:11.411Z,64.56
2017-06-09T04:07:51.980Z,64.76
2017-06-09T04:08:32.670Z,64.85
2017-06-09T04:09:13.247Z,64.47
2017-06-09T04:09:53.839Z,64.47
2017-06-09T04:10:34.438Z,64.18
2017-06-09T04:11:15.022Z,64.47
2017-06-09T04:11:55.615Z,64.28
2017-06-09T04:12:36.199Z,64.76
2017-06-09T04:13:16.785Z,64.47
2017-06-09T04:13:57.364Z,64.95
2017-06-09T04:14:37.942Z,64.95
2017-06-09T04:15:18.517Z,64.76
2017-06-09T04:15:59.114Z,64.85
2017-06-09T04:16:39.718Z,64.85
2017-06-09T04:17:20.302Z,64.95
2017-06-09T04:18:00.892Z,63.89
2017-06-09T04:18:41.512Z,63.99
2017-06-09T04:19:22.105Z,64.76
2017-06-09T04:20:02.710Z,64.76
2017-06-09T04:20:43.298Z,64.66
2017-06-09T04:21:23.882Z,65.05
2017-06-09T04:22:04.475Z,64.95
2017-06-09T04:22:45.081Z,64.76
2017-06-09T04:23:25.678Z,64.95
2017-06-09T04:24:06.298Z,64.37
2017-06-09T04:24:46.864Z,64.28
2017-06-09T04:25:27.457Z,64.28
2017-06-09T04:26:08.043Z,64.95
2017-06-09T04:26:48.673Z,64.95
2017-06-09T04:27:29.250Z,64.85
2017-06-09T04:28:09.860Z,64.85
2017-06-09T04:28:50.435Z,65.05
2017-06-09T04:29:31.021Z,64.95
2017-06-09T04:30:11.596Z,64.37
2017-06-09T04:30:52.190Z,64.85
2017-06-09T04:31:32.783Z,65.71
2017-06-09T04:32:13.418Z,66.38
2017-06-09T04:32:53.983Z,66.42
2017-06-09T04:33:34.575Z,66.42
2017-06-09T04:34:15.202Z,65.94
2017-06-09T04:34:55.842Z,65.84
2017-06-09T04:35:36.476Z,65.84
2017-06-09T04:36:17.084Z,65.65
2017-06-09T04:36:57.686Z,65.08
2017-06-09T04:37:38.272Z,64.63
2017-06-09T04:38:19.242Z,65.01
2017-06-09T04:38:59.963Z,63.67
2017-06-09T04:39:40.708Z,63.19
2017-06-09T04:40:21.288Z,63.76
2017-06-09T04:41:02.141Z,63.67
2017-06-09T04:41:42.833Z,63.76
2017-06-09T04:42:23.449Z,63
2017-06-09T04:43:04.073Z,63
2017-06-09T04:43:44.779Z,63.48
2017-06-09T04:44:25.376Z,63.48
2017-06-09T04:45:05.963Z,63.48
2017-06-09T04:45:46.573Z,63.38
2017-06-09T04:46:27.158Z,62.62
2017-06-09T04:47:07.749Z,62.65
2017-06-09T04:47:48.568Z,62.45
2017-06-09T04:48:29.202Z,61.69
2017-06-09T04:49:09.800Z,62.16
2017-06-09T04:49:50.386Z,62.36
2017-06-09T04:50:30.972Z,62.65
2017-06-09T04:51:11.612Z,62.74
2017-06-09T04:51:52.172Z,62.55
2017-06-09T04:52:32.758Z,62.36
2017-06-09T04:53:13.398Z,62.45
2017-06-09T04:53:53.996Z,62.16
2017-06-09T04:54:34.628Z,61.78
2017-06-09T04:55:15.237Z,61.11
2017-06-09T04:55:55.848Z,61.11
2017-06-09T04:56:36.439Z,61.11
2017-06-09T04:57:17.038Z,61.21
2017-06-09T04:57:57.662Z,60.72
2017-06-09T04:58:38.261Z,60.72
2017-06-09T04:59:18.864Z,60.82
2017-06-09T04:59:59.466Z,61.4
2017-06-09T05:00:40.048Z,61.3
2017-06-09T05:01:20.635Z,61.49
2017-06-09T05:02:01.221Z,61.21
2017-06-09T05:02:41.802Z,61.3
2017-06-09T05:03:22.394Z,61.14
2017-06-09T05:04:02.985Z,60.95
2017-06-09T05:04:43.561Z,60.47
2017-06-09T05:05:24.156Z,59.89
2017-06-09T05:06:04.916Z,59.61
2017-06-09T05:06:45.482Z,59.7
2017-06-09T05:07:26.097Z,58.94
2017-06-09T05:08:06.686Z,58.64
2017-06-09T05:08:47.268Z,59.61
2017-06-09T05:09:27.856Z,60.18
2017-06-09T05:10:08.441Z,60.38
2017-06-09T05:10:49.045Z,59.8
2017-06-09T05:11:29.641Z,59.61
2017-06-09T05:12:10.301Z,59.03
2017-06-09T05:12:50.919Z,58.74
2017-06-09T05:13:31.503Z,58.74
2017-06-09T05:14:12.166Z,58.64
2017-06-09T05:14:53.182Z,58.45
2017-06-09T05:15:33.851Z,58.55
2017-06-09T05:16:14.461Z,58.36
2017-06-09T05:16:55.059Z,59.32
2017-06-09T05:17:35.686Z,59.61
2017-06-09T05:18:16.307Z,58.94
2017-06-09T05:18:57.484Z,58.94
2017-06-09T05:19:38.075Z,58.84
2017-06-09T05:20:18.662Z,58.74
2017-06-09T05:21:00.276Z,59.12
2017-06-09T05:21:40.880Z,58.45
2017-06-09T05:22:21.734Z,58.39
2017-06-09T05:23:02.317Z,58.48
2017-06-09T05:23:43.004Z,58.39
2017-06-09T05:24:23.589Z,58
2017-06-09T05:25:04.208Z,58.1
2017-06-09T05:25:45.598Z,57.81
2017-06-09T05:26:26.212Z,57.55
2017-06-09T05:27:06.807Z,57.07
2017-06-09T05:27:47.399Z,56.98
2017-06-09T05:28:28.006Z,56.01
2017-06-09T05:29:08.601Z,55.73
2017-06-09T05:29:49.208Z,56.01
2017-06-09T05:30:29.810Z,55.24
2017-06-09T05:31:10.410Z,55.66
2017-06-09T05:31:50.996Z,56.33
2017-06-09T05:32:31.595Z,56.14
2017-06-09T05:33:12.194Z,55.37
2017-06-09T05:33:52.816Z,55.08
2017-06-09T05:34:33.433Z,54.69
2017-06-09T05:35:14.022Z,54.24
2017-06-09T05:35:54.614Z,54.24
2017-06-09T05:36:35.215Z,53.76
2017-06-09T05:37:15.818Z,54.05
2017-06-09T05:37:56.445Z,53.86
2017-06-09T05:38:37.049Z,53.21
2017-06-09T05:39:17.646Z,52.63
2017-06-09T05:39:58.272Z,52.54
2017-06-09T05:40:38.889Z,52.63
2017-06-09T05:41:19.455Z,52.54
2017-06-09T05:42:00.053Z,52.25
2017-06-09T05:42:40.643Z,51.48
2017-06-09T05:43:21.272Z,51.67
2017-06-09T05:44:02.081Z,51.38
2017-06-09T05:44:42.973Z,50.73
2017-06-09T05:45:23.579Z,50.93
2017-06-09T05:46:04.168Z,50.73
2017-06-09T05:46:44.767Z,50.54
2017-06-09T05:47:25.397Z,50.25
2017-06-09T05:48:06.007Z,50.63
2017-06-09T05:48:46.601Z,50.93
2017-06-09T05:49:27.346Z,50.66
2017-06-09T05:50:07.950Z,50.09
2017-06-09T05:50:48.542Z,49.41
2017-06-09T05:51:29.136Z,49.51
2017-06-09T05:52:09.762Z,49.02
2017-06-09T05:52:50.365Z,49.02
2017-06-09T05:53:30.961Z,48.93
2017-06-09T05:54:11.582Z,49.05
2017-06-09T05:54:52.163Z,48.47
2017-06-09T05:55:32.795Z,48.28
2017-06-09T05:56:13.365Z,48.18
2017-06-09T05:56:53.976Z,47.7
2017-06-09T05:57:34.639Z,48.28
2017-06-09T05:58:15.234Z,48.28
2017-06-09T05:58:55.891Z,47.72
2017-06-09T05:59:36.487Z,47.92
2017-06-09T06:00:17.090Z,48.57
2017-06-09T06:00:57.697Z,47.6
2017-06-09T06:01:38.522Z,47.34
2017-06-09T06:02:18.971Z,48.01
2017-06-09T06:02:59.705Z,47.92
2017-06-09T06:03:40.304Z,47.63
2017-06-09T06:04:20.900Z,47.34
2017-06-09T06:05:01.496Z,46.66
2017-06-09T06:05:42.100Z,45.99
2017-06-09T06:06:22.741Z,45.21
2017-06-09T06:07:03.338Z,45.03
2017-06-09T06:07:43.957Z,44.73
2017-06-09T06:08:24.541Z,45.43
2017-06-09T06:09:05.326Z,46.11
2017-06-09T06:09:46.036Z,46.01
2017-06-09T06:10:27.760Z,45.92
2017-06-09T06:11:09.753Z,46.11
2017-06-09T06:11:51.141Z,45.14
2017-06-09T06:12:38.304Z,45.36
2017-06-09T06:13:22.042Z,44.1
2017-06-09T06:14:02.639Z,44.49
2017-06-09T06:14:43.327Z,44.2
2017-06-09T06:15:23.941Z,44.2
2017-06-09T06:16:04.520Z,44.29
2017-06-09T06:16:46.700Z,44.1
2017-06-09T06:17:27.387Z,44.29
2017-06-09T06:18:08.021Z,43.93
2017-06-09T06:18:48.628Z,43.64
2017-06-09T06:19:29.259Z,43.74
2017-06-09T06:20:10.011Z,43.45
2017-06-09T06:20:50.461Z,42.48
2017-06-09T06:21:31.067Z,42.68
2017-06-09T06:22:11.653Z,42.02
2017-06-09T06:22:52.324Z,41.93
2017-06-09T06:23:33.078Z,41.44
2017-06-09T06:24:13.659Z,42.02
2017-06-09T06:24:54.270Z,41.93
2017-06-09T06:25:35.137Z,41.73
2017-06-09T06:26:15.765Z,41.44
2017-06-09T06:26:56.395Z,40.96
2017-06-09T06:27:37.035Z,41.15
2017-06-09T06:28:17.696Z,40.47
2017-06-09T06:28:58.320Z,40.86
2017-06-09T06:29:38.912Z,41.93
2017-06-09T06:30:19.516Z,43.66
2017-06-09T06:31:00.814Z,42.91
2017-06-09T06:31:41.438Z,41.94
2017-06-09T06:32:22.971Z,42.14
2017-06-09T06:33:03.999Z,41.85
2017-06-09T06:33:46.181Z,42.14
2017-06-09T06:34:30.690Z,41.85
2017-06-09T06:35:17.865Z,41.46
2017-06-09T06:36:08.927Z,41.39
2017-06-09T06:36:51.719Z,41.39
2017-06-09T06:37:37.586Z,41.58
2017-06-09T06:38:18.323Z,40.81
2017-06-09T06:38:59.582Z,40.9
2017-06-09T06:39:40.218Z,40.23
2017-06-09T06:40:20.848Z,40.32
2017-06-09T06:41:01.572Z,40.5
2017-06-09T06:41:42.761Z,41
2017-06-09T06:42:23.708Z,40.69
2017-06-09T06:43:05.953Z,40.78
2017-06-09T06:43:47.583Z,42.33
2017-06-09T06:44:29.484Z,42.16
2017-06-09T06:45:11.750Z,41.29
2017-06-09T06:45:53.770Z,40.5
2017-06-09T06:46:34.724Z,40.2
2017-06-09T06:47:15.565Z,40.2
2017-06-09T06:47:56.467Z,40.5
2017-06-09T06:48:37.529Z,40.98
2017-06-09T06:49:18.316Z,40.11
2017-06-09T06:50:00.009Z,39.82
2017-06-09T06:50:40.945Z,39.82
2017-06-09T06:51:21.769Z,40.01
2017-06-09T06:52:02.814Z,40.88
2017-06-09T06:52:43.669Z,41.08
2017-06-09T06:53:24.778Z,40.88
2017-06-09T06:54:05.560Z,40.01
2017-06-09T06:54:46.463Z,40.3
2017-06-09T06:55:27.126Z,40.59
2017-06-09T06:56:08.137Z,41.27
2017-06-09T06:56:50.116Z,41.63
2017-06-09T06:57:30.974Z,41.27
2017-06-09T06:58:11.952Z,40.98
2017-06-09T06:58:52.779Z,40.88
2017-06-09T06:59:33.609Z,41.35
2017-06-09T07:00:14.358Z,41.27
2017-06-09T07:00:58.848Z,42.62
2017-06-09T07:01:39.365Z,42.82
2017-06-09T07:02:20.093Z,41.75
2017-06-09T07:03:01.044Z,41.56
2017-06-09T07:03:41.977Z,42.14
2017-06-09T07:04:23.511Z,42.43
2017-06-09T07:05:03.764Z,43.4
2017-06-09T07:05:44.767Z,42.65
2017-06-09T07:06:25.291Z,42.24
2017-06-09T07:07:05.903Z,42.83
2017-06-09T07:07:46.527Z,43.61
2017-06-09T07:08:27.122Z,43.41
2017-06-09T07:09:07.711Z,42.74
2017-06-09T07:09:48.440Z,42.07
2017-06-09T07:10:29.067Z,41.19
2017-06-09T07:11:09.657Z,42.16
2017-06-09T07:11:50.252Z,41.87
2017-06-09T07:12:30.861Z,41.58
2017-06-09T07:13:11.457Z,41.09
2017-06-09T07:13:52.050Z,41.09
2017-06-09T07:14:32.659Z,41.39
2017-06-09T07:15:13.250Z,41.94
2017-06-09T07:16:04.200Z,42.52
2017-06-09T07:16:46.880Z,44.26
2017-06-09T07:17:27.482Z,44.48
2017-06-09T07:18:08.116Z,43.61
2017-06-09T07:18:48.732Z,42.65
2017-06-09T07:19:29.481Z,42.45
2017-06-09T07:20:10.053Z,42.07
2017-06-09T07:20:55.066Z,41.77
2017-06-09T07:21:35.660Z,41.87
2017-06-09T07:22:16.268Z,41.77
2017-06-09T07:23:02.514Z,43.05
2017-06-09T07:23:45.215Z,43.54
2017-06-09T07:24:27.030Z,42.08
2017-06-09T07:25:10.099Z,41.11
2017-06-09T07:25:52.638Z,40.92
2017-06-09T07:26:33.596Z,40.34
2017-06-09T07:27:17.573Z,41.21
2017-06-09T07:27:58.190Z,40.44
2017-06-09T07:28:38.819Z,40.63
2017-06-09T07:29:21.231Z,40.63
2017-06-09T07:30:02.247Z,40.34
2017-06-09T07:30:42.968Z,40.44
2017-06-09T07:31:23.565Z,40.15
2017-06-09T07:32:04.153Z,40.53
2017-06-09T07:32:44.934Z,40.44
2017-06-09T07:33:25.536Z,41.02
2017-06-09T07:34:06.187Z,41.91
2017-06-09T07:34:46.758Z,42.08
2017-06-09T07:35:27.363Z,40.46
2017-06-09T07:36:10.019Z,40.94
2017-06-09T07:36:51.975Z,41.42
2017-06-09T07:37:38.235Z,40.94
2017-06-09T07:38:56.063Z,40.07
2017-06-09T07:39:46.780Z,39.61
2017-06-09T07:40:33.563Z,39.22
2017-06-09T07:41:34.305Z,39.22
2017-06-09T07:42:25.799Z,38.83
2017-06-09T07:43:10.271Z,38.81
2017-06-09T07:43:52.600Z,40.46
2017-06-09T07:44:34.433Z,38.62
2017-06-09T07:45:17.301Z,37.75
2017-06-09T07:45:57.914Z,37.75
2017-06-09T07:46:39.815Z,38.13
2017-06-09T07:47:21.613Z,38.04
2017-06-09T07:48:06.550Z,37.94
2017-06-09T07:48:53.963Z,38.04
2017-06-09T07:49:39.698Z,39.01
2017-06-09T07:50:20.325Z,38.62
2017-06-09T07:51:00.932Z,38.53
2017-06-09T07:51:42.739Z,38.71
2017-06-09T07:52:25.999Z,38.71
2017-06-09T07:53:10.987Z,39.01
2017-06-09T07:53:53.193Z,39.29
2017-06-09T07:54:33.808Z,38.13
2017-06-09T07:55:14.401Z,37.75
2017-06-09T07:55:55.008Z,39.2
2017-06-09T07:56:38.522Z,39.69
2017-06-09T07:57:20.674Z,39.51
2017-06-09T07:58:01.277Z,38.93
2017-06-09T07:58:41.882Z,37.57
2017-06-09T07:59:22.505Z,37.28
2017-06-09T08:00:04.183Z,36.7
2017-06-09T08:00:44.942Z,36.7
2017-06-09T08:01:39.678Z,36.6
2017-06-09T08:02:20.268Z,36.32
2017-06-09T08:03:00.885Z,35.54
2017-06-09T08:03:41.521Z,35.25
2017-06-09T08:04:22.158Z,36.32
2017-06-09T08:05:02.938Z,35.62
2017-06-09T08:05:43.544Z,36.22
2017-06-09T08:06:25.531Z,36.32
2017-06-09T08:07:06.317Z,35.44
2017-06-09T08:07:46.931Z,35.64
2017-06-09T08:08:30.830Z,37.36
2017-06-09T08:09:11.664Z,35.91
2017-06-09T08:09:52.449Z,36.2
2017-06-09T08:10:34.551Z,35.72
2017-06-09T08:11:19.163Z,36.3
2017-06-09T08:12:01.179Z,36.98
2017-06-09T08:12:41.768Z,38.91
2017-06-09T08:13:22.386Z,37.46
2017-06-09T08:14:03.258Z,36.4
2017-06-09T08:14:44.133Z,36.4
2017-06-09T08:15:24.750Z,36.49
2017-06-09T08:16:09.428Z,36.49
2017-06-09T08:16:50.583Z,36.68
2017-06-09T08:17:33.989Z,36.78
2017-06-09T08:19:32.957Z,38.53
2017-06-09T08:20:13.593Z,38.64
2017-06-09T08:20:54.195Z,37.57
2017-06-09T08:21:34.774Z,38.93
2017-06-09T08:22:15.594Z,37.57
2017-06-09T08:22:56.197Z,37.67
2017-06-09T08:23:36.855Z,39.8
2017-06-09T08:24:19.475Z,39.22
2017-06-09T08:25:00.064Z,38.54
2017-06-09T08:25:40.653Z,38.54
2017-06-09T08:26:21.938Z,39.41
2017-06-09T08:27:02.530Z,38.64
2017-06-09T08:27:44.174Z,40.09
2017-06-09T08:28:25.120Z,39.9
2017-06-09T08:29:07.437Z,39.03
2017-06-09T08:29:51.574Z,38.06
2017-06-09T08:31:06.193Z,38.66
2017-06-09T08:31:46.819Z,38.76
2017-06-09T08:32:28.543Z,38.85
2017-06-09T08:33:13.799Z,38.76
2017-06-09T08:34:00.287Z,38.76
2017-06-09T08:34:44.176Z,39.53
2017-06-09T08:35:35.974Z,38.17
2017-06-09T08:36:41.669Z,36.91
2017-06-09T08:37:26.625Z,37.48
2017-06-09T08:38:12.500Z,36.6
2017-06-09T08:38:55.334Z,36.24
2017-06-09T08:39:35.933Z,36.41
2017-06-09T08:40:17.286Z,36.6
2017-06-09T08:40:57.981Z,37.48
2017-06-09T08:41:38.589Z,37.19
2017-06-09T08:42:19.171Z,36.6
2017-06-09T08:42:59.776Z,36.6
2017-06-09T08:43:40.361Z,37.38
2017-06-09T08:44:20.963Z,37.38
2017-06-09T08:45:01.570Z,37.19
2017-06-09T08:45:42.156Z,37.28
2017-06-09T08:46:22.827Z,37.57
2017-06-09T08:47:03.411Z,37.09
2017-06-09T08:47:43.999Z,37.28
2017-06-09T08:48:24.663Z,37.67
2017-06-09T08:49:05.255Z,38.45
2017-06-09T08:49:45.849Z,37.38
2017-06-09T08:50:26.439Z,36.51
2017-06-09T08:51:07.071Z,36.8
2017-06-09T08:51:47.846Z,37.38
2017-06-09T08:52:28.487Z,37.67